sensor_id;sensor_type;location;lat;lon;timestamp;P1;durP1;ratioP1;P2;durP2;ratioP2
73150;SDS011;61354;50.758;6.106;2023-06-26T00:00:18;5.63;;;3.88;;
73150;SDS011;61354;50.758;6.106;2023-06-26T00:02:44;5.95;;;4.18;;
73150;SDS011;61354;50.758;6.106;2023-06-26T00:05:10;5.93;;;4.05;;
73150;SDS011;61354;50.758;6.106;2023-06-26T00:07:35;5.00;;;3.88;;
73150;SDS011;61354;50.758;6.106;2023-06-26T00:10:04;5.72;;;4.10;;
73150;SDS011;61354;50.758;6.106;2023-06-26T00:12:31;5.68;;;4.22;;
73150;SDS011;61354;50.758;6.106;2023-06-26T00:14:57;6.20;;;4.10;;
73150;SDS011;61354;50.758;6.106;2023-06-26T00:17:23;6.03;;;4.20;;
73150;SDS011;61354;50.758;6.106;2023-06-26T00:19:49;6.80;;;4.47;;
73150;SDS011;61354;50.758;6.106;2023-06-26T00:22:15;5.68;;;3.95;;
73150;SDS011;61354;50.758;6.106;2023-06-26T00:24:41;5.55;;;3.97;;
73150;SDS011;61354;50.758;6.106;2023-06-26T00:27:06;6.25;;;4.25;;
73150;SDS011;61354;50.758;6.106;2023-06-26T00:29:32;6.25;;;4.15;;
73150;SDS011;61354;50.758;6.106;2023-06-26T00:31:58;5.43;;;3.85;;
73150;SDS011;61354;50.758;6.106;2023-06-26T00:34:23;6.03;;;4.45;;
73150;SDS011;61354;50.758;6.106;2023-06-26T00:36:49;5.55;;;4.00;;
73150;SDS011;61354;50.758;6.106;2023-06-26T00:39:14;5.28;;;3.60;;
73150;SDS011;61354;50.758;6.106;2023-06-26T00:41:40;5.85;;;4.07;;
73150;SDS011;61354;50.758;6.106;2023-06-26T00:44:05;6.32;;;4.10;;
73150;SDS011;61354;50.758;6.106;2023-06-26T00:46:31;5.72;;;4.07;;
73150;SDS011;61354;50.758;6.106;2023-06-26T00:49:00;5.28;;;3.72;;
73150;SDS011;61354;50.758;6.106;2023-06-26T00:51:28;5.80;;;3.65;;
73150;SDS011;61354;50.758;6.106;2023-06-26T00:53:55;5.40;;;3.83;;
73150;SDS011;61354;50.758;6.106;2023-06-26T00:56:22;6.35;;;4.13;;
73150;SDS011;61354;50.758;6.106;2023-06-26T00:58:48;6.00;;;4.18;;
73150;SDS011;61354;50.758;6.106;2023-06-26T01:01:14;5.95;;;4.35;;
73150;SDS011;61354;50.758;6.106;2023-06-26T01:03:43;5.55;;;3.85;;
73150;SDS011;61354;50.758;6.106;2023-06-26T01:06:11;7.30;;;4.35;;
73150;SDS011;61354;50.758;6.106;2023-06-26T01:08:41;6.05;;;3.83;;
73150;SDS011;61354;50.758;6.106;2023-06-26T01:11:07;6.43;;;4.05;;
73150;SDS011;61354;50.758;6.106;2023-06-26T01:13:33;4.80;;;3.70;;
73150;SDS011;61354;50.758;6.106;2023-06-26T01:15:59;6.63;;;4.22;;
73150;SDS011;61354;50.758;6.106;2023-06-26T01:18:27;6.70;;;3.88;;
73150;SDS011;61354;50.758;6.106;2023-06-26T01:20:54;5.43;;;3.88;;
73150;SDS011;61354;50.758;6.106;2023-06-26T01:23:37;5.95;;;3.72;;
73150;SDS011;61354;50.758;6.106;2023-06-26T01:26:16;5.68;;;3.85;;
73150;SDS011;61354;50.758;6.106;2023-06-26T01:28:45;6.43;;;4.20;;
73150;SDS011;61354;50.758;6.106;2023-06-26T01:31:11;6.38;;;4.18;;
73150;SDS011;61354;50.758;6.106;2023-06-26T01:33:38;5.70;;;3.90;;
73150;SDS011;61354;50.758;6.106;2023-06-26T01:36:04;6.70;;;4.28;;
73150;SDS011;61354;50.758;6.106;2023-06-26T01:38:30;6.20;;;4.00;;
73150;SDS011;61354;50.758;6.106;2023-06-26T01:40:55;5.65;;;3.92;;
73150;SDS011;61354;50.758;6.106;2023-06-26T01:45:52;6.15;;;4.28;;
73150;SDS011;61354;50.758;6.106;2023-06-26T01:48:24;6.60;;;4.05;;
73150;SDS011;61354;50.758;6.106;2023-06-26T01:50:55;6.10;;;3.97;;
73150;SDS011;61354;50.758;6.106;2023-06-26T01:53:24;5.82;;;4.47;;
73150;SDS011;61354;50.758;6.106;2023-06-26T01:55:57;5.68;;;4.05;;
73150;SDS011;61354;50.758;6.106;2023-06-26T01:58:30;7.50;;;4.20;;
73150;SDS011;61354;50.758;6.106;2023-06-26T02:03:24;7.32;;;4.50;;
73150;SDS011;61354;50.758;6.106;2023-06-26T02:05:50;5.88;;;4.15;;
73150;SDS011;61354;50.758;6.106;2023-06-26T02:08:16;5.38;;;4.00;;
73150;SDS011;61354;50.758;6.106;2023-06-26T02:10:41;7.40;;;4.70;;
73150;SDS011;61354;50.758;6.106;2023-06-26T02:13:07;6.97;;;4.28;;
73150;SDS011;61354;50.758;6.106;2023-06-26T02:15:33;6.13;;;4.00;;
73150;SDS011;61354;50.758;6.106;2023-06-26T02:17:58;7.57;;;4.30;;
73150;SDS011;61354;50.758;6.106;2023-06-26T02:20:24;8.10;;;4.45;;
73150;SDS011;61354;50.758;6.106;2023-06-26T02:22:49;7.43;;;4.28;;
73150;SDS011;61354;50.758;6.106;2023-06-26T02:25:15;6.60;;;4.50;;
73150;SDS011;61354;50.758;6.106;2023-06-26T02:27:40;7.57;;;5.13;;
73150;SDS011;61354;50.758;6.106;2023-06-26T02:30:08;8.82;;;4.72;;
73150;SDS011;61354;50.758;6.106;2023-06-26T02:32:34;7.03;;;4.68;;
73150;SDS011;61354;50.758;6.106;2023-06-26T02:34:59;7.10;;;4.88;;
73150;SDS011;61354;50.758;6.106;2023-06-26T02:37:25;5.70;;;4.10;;
73150;SDS011;61354;50.758;6.106;2023-06-26T02:39:51;6.78;;;5.10;;
73150;SDS011;61354;50.758;6.106;2023-06-26T02:42:16;7.20;;;4.70;;
73150;SDS011;61354;50.758;6.106;2023-06-26T02:44:42;7.22;;;4.70;;
73150;SDS011;61354;50.758;6.106;2023-06-26T02:47:07;7.45;;;4.68;;
73150;SDS011;61354;50.758;6.106;2023-06-26T02:49:33;6.90;;;4.53;;
73150;SDS011;61354;50.758;6.106;2023-06-26T02:51:58;6.38;;;4.22;;
73150;SDS011;61354;50.758;6.106;2023-06-26T02:54:24;6.57;;;4.30;;
73150;SDS011;61354;50.758;6.106;2023-06-26T02:56:50;6.78;;;3.95;;
73150;SDS011;61354;50.758;6.106;2023-06-26T02:59:15;6.50;;;4.25;;
73150;SDS011;61354;50.758;6.106;2023-06-26T03:01:41;7.55;;;4.40;;
73150;SDS011;61354;50.758;6.106;2023-06-26T03:04:06;6.13;;;4.10;;
73150;SDS011;61354;50.758;6.106;2023-06-26T03:06:32;6.80;;;3.97;;
73150;SDS011;61354;50.758;6.106;2023-06-26T03:08:57;6.13;;;3.70;;
73150;SDS011;61354;50.758;6.106;2023-06-26T03:11:23;6.50;;;4.20;;
73150;SDS011;61354;50.758;6.106;2023-06-26T03:13:48;6.20;;;3.60;;
73150;SDS011;61354;50.758;6.106;2023-06-26T03:16:14;5.70;;;3.55;;
73150;SDS011;61354;50.758;6.106;2023-06-26T03:18:40;7.20;;;4.22;;
73150;SDS011;61354;50.758;6.106;2023-06-26T03:21:05;6.70;;;3.97;;
73150;SDS011;61354;50.758;6.106;2023-06-26T03:23:31;7.50;;;4.05;;
73150;SDS011;61354;50.758;6.106;2023-06-26T03:25:56;6.90;;;3.97;;
73150;SDS011;61354;50.758;6.106;2023-06-26T03:28:22;6.15;;;4.03;;
73150;SDS011;61354;50.758;6.106;2023-06-26T03:30:47;7.85;;;4.03;;
73150;SDS011;61354;50.758;6.106;2023-06-26T03:33:13;6.40;;;4.20;;
73150;SDS011;61354;50.758;6.106;2023-06-26T03:35:38;6.47;;;3.95;;
73150;SDS011;61354;50.758;6.106;2023-06-26T03:38:04;9.68;;;4.35;;
73150;SDS011;61354;50.758;6.106;2023-06-26T03:40:30;6.97;;;3.65;;
73150;SDS011;61354;50.758;6.106;2023-06-26T03:42:56;5.47;;;3.85;;
73150;SDS011;61354;50.758;6.106;2023-06-26T03:45:21;6.20;;;4.03;;
73150;SDS011;61354;50.758;6.106;2023-06-26T03:47:47;7.50;;;4.30;;
73150;SDS011;61354;50.758;6.106;2023-06-26T03:50:15;7.72;;;3.78;;
73150;SDS011;61354;50.758;6.106;2023-06-26T03:52:43;6.88;;;4.05;;
73150;SDS011;61354;50.758;6.106;2023-06-26T03:55:09;6.93;;;4.18;;
73150;SDS011;61354;50.758;6.106;2023-06-26T03:57:34;6.60;;;3.83;;
73150;SDS011;61354;50.758;6.106;2023-06-26T04:00:00;6.45;;;3.97;;
73150;SDS011;61354;50.758;6.106;2023-06-26T04:02:26;6.18;;;3.80;;
73150;SDS011;61354;50.758;6.106;2023-06-26T04:04:51;7.13;;;4.03;;
73150;SDS011;61354;50.758;6.106;2023-06-26T04:07:18;6.07;;;3.63;;
73150;SDS011;61354;50.758;6.106;2023-06-26T04:09:44;6.30;;;3.70;;
73150;SDS011;61354;50.758;6.106;2023-06-26T04:12:10;7.38;;;4.43;;
73150;SDS011;61354;50.758;6.106;2023-06-26T04:14:35;7.05;;;3.55;;
73150;SDS011;61354;50.758;6.106;2023-06-26T04:17:01;6.95;;;3.75;;
73150;SDS011;61354;50.758;6.106;2023-06-26T04:19:29;7.05;;;3.50;;
73150;SDS011;61354;50.758;6.106;2023-06-26T04:21:58;6.30;;;3.35;;
73150;SDS011;61354;50.758;6.106;2023-06-26T04:24:23;6.85;;;3.30;;
73150;SDS011;61354;50.758;6.106;2023-06-26T04:26:49;5.45;;;3.00;;
73150;SDS011;61354;50.758;6.106;2023-06-26T04:29:14;5.63;;;3.25;;
73150;SDS011;61354;50.758;6.106;2023-06-26T04:31:40;6.80;;;3.53;;
73150;SDS011;61354;50.758;6.106;2023-06-26T04:34:05;6.07;;;3.20;;
73150;SDS011;61354;50.758;6.106;2023-06-26T04:36:31;5.57;;;2.88;;
73150;SDS011;61354;50.758;6.106;2023-06-26T04:38:58;5.07;;;2.83;;
73150;SDS011;61354;50.758;6.106;2023-06-26T04:41:24;5.82;;;2.92;;
73150;SDS011;61354;50.758;6.106;2023-06-26T04:43:50;5.50;;;2.95;;
73150;SDS011;61354;50.758;6.106;2023-06-26T04:46:16;5.68;;;2.75;;
73150;SDS011;61354;50.758;6.106;2023-06-26T04:48:42;5.50;;;2.72;;
73150;SDS011;61354;50.758;6.106;2023-06-26T04:53:35;4.78;;;2.72;;
73150;SDS011;61354;50.758;6.106;2023-06-26T04:56:01;5.50;;;2.95;;
73150;SDS011;61354;50.758;6.106;2023-06-26T04:58:26;6.32;;;2.85;;
73150;SDS011;61354;50.758;6.106;2023-06-26T05:00:52;5.47;;;2.70;;
73150;SDS011;61354;50.758;6.106;2023-06-26T05:03:17;5.05;;;3.00;;
73150;SDS011;61354;50.758;6.106;2023-06-26T05:05:43;4.50;;;2.60;;
73150;SDS011;61354;50.758;6.106;2023-06-26T05:08:21;5.70;;;2.72;;
73150;SDS011;61354;50.758;6.106;2023-06-26T05:13:13;7.10;;;2.85;;
73150;SDS011;61354;50.758;6.106;2023-06-26T05:15:43;7.60;;;2.78;;
73150;SDS011;61354;50.758;6.106;2023-06-26T05:18:09;4.45;;;2.35;;
73150;SDS011;61354;50.758;6.106;2023-06-26T05:20:35;8.50;;;3.00;;
73150;SDS011;61354;50.758;6.106;2023-06-26T05:23:02;5.97;;;2.92;;
73150;SDS011;61354;50.758;6.106;2023-06-26T05:25:31;5.25;;;2.88;;
73150;SDS011;61354;50.758;6.106;2023-06-26T05:27:59;5.97;;;2.83;;
73150;SDS011;61354;50.758;6.106;2023-06-26T05:30:25;5.75;;;2.80;;
73150;SDS011;61354;50.758;6.106;2023-06-26T05:32:52;6.22;;;2.78;;
73150;SDS011;61354;50.758;6.106;2023-06-26T05:35:20;6.88;;;2.97;;
73150;SDS011;61354;50.758;6.106;2023-06-26T05:37:47;10.07;;;3.03;;
73150;SDS011;61354;50.758;6.106;2023-06-26T05:40:15;5.40;;;2.63;;
73150;SDS011;61354;50.758;6.106;2023-06-26T05:42:44;5.43;;;3.03;;
73150;SDS011;61354;50.758;6.106;2023-06-26T05:45:10;6.47;;;2.95;;
73150;SDS011;61354;50.758;6.106;2023-06-26T05:47:36;6.70;;;3.17;;
73150;SDS011;61354;50.758;6.106;2023-06-26T05:50:02;8.25;;;3.38;;
73150;SDS011;61354;50.758;6.106;2023-06-26T05:52:28;6.60;;;3.42;;
73150;SDS011;61354;50.758;6.106;2023-06-26T05:54:55;8.18;;;3.40;;
73150;SDS011;61354;50.758;6.106;2023-06-26T05:57:25;7.55;;;3.30;;
73150;SDS011;61354;50.758;6.106;2023-06-26T05:59:55;8.27;;;3.60;;
73150;SDS011;61354;50.758;6.106;2023-06-26T06:02:21;8.25;;;3.50;;
73150;SDS011;61354;50.758;6.106;2023-06-26T06:04:46;6.13;;;3.55;;
73150;SDS011;61354;50.758;6.106;2023-06-26T06:07:12;7.25;;;3.53;;
73150;SDS011;61354;50.758;6.106;2023-06-26T06:09:38;8.95;;;3.75;;
73150;SDS011;61354;50.758;6.106;2023-06-26T06:12:04;7.82;;;3.58;;
73150;SDS011;61354;50.758;6.106;2023-06-26T06:14:31;8.10;;;3.58;;
73150;SDS011;61354;50.758;6.106;2023-06-26T06:17:00;9.27;;;4.30;;
73150;SDS011;61354;50.758;6.106;2023-06-26T06:19:26;6.03;;;3.35;;
73150;SDS011;61354;50.758;6.106;2023-06-26T06:21:52;8.50;;;3.63;;
73150;SDS011;61354;50.758;6.106;2023-06-26T06:24:18;8.45;;;3.47;;
73150;SDS011;61354;50.758;6.106;2023-06-26T06:26:43;9.10;;;3.72;;
73150;SDS011;61354;50.758;6.106;2023-06-26T06:29:09;6.93;;;3.38;;
73150;SDS011;61354;50.758;6.106;2023-06-26T06:31:35;6.32;;;3.75;;
73150;SDS011;61354;50.758;6.106;2023-06-26T06:34:00;9.85;;;4.53;;
73150;SDS011;61354;50.758;6.106;2023-06-26T06:36:26;8.35;;;3.78;;
73150;SDS011;61354;50.758;6.106;2023-06-26T06:38:52;6.80;;;3.80;;
73150;SDS011;61354;50.758;6.106;2023-06-26T06:41:18;10.10;;;4.35;;
73150;SDS011;61354;50.758;6.106;2023-06-26T06:43:44;6.82;;;3.50;;
73150;SDS011;61354;50.758;6.106;2023-06-26T06:46:10;6.35;;;3.33;;
73150;SDS011;61354;50.758;6.106;2023-06-26T06:48:36;7.72;;;4.00;;
73150;SDS011;61354;50.758;6.106;2023-06-26T06:51:01;8.18;;;3.50;;
73150;SDS011;61354;50.758;6.106;2023-06-26T06:53:27;7.53;;;3.88;;
73150;SDS011;61354;50.758;6.106;2023-06-26T06:55:52;9.20;;;3.67;;
73150;SDS011;61354;50.758;6.106;2023-06-26T06:58:18;8.93;;;3.50;;
73150;SDS011;61354;50.758;6.106;2023-06-26T07:00:48;7.63;;;3.35;;
73150;SDS011;61354;50.758;6.106;2023-06-26T07:03:14;4.90;;;3.10;;
73150;SDS011;61354;50.758;6.106;2023-06-26T07:05:41;7.32;;;3.20;;
73150;SDS011;61354;50.758;6.106;2023-06-26T07:08:07;6.32;;;3.20;;
73150;SDS011;61354;50.758;6.106;2023-06-26T07:10:33;6.32;;;3.47;;
73150;SDS011;61354;50.758;6.106;2023-06-26T07:12:59;6.43;;;3.42;;
73150;SDS011;61354;50.758;6.106;2023-06-26T07:15:26;6.90;;;3.22;;
73150;SDS011;61354;50.758;6.106;2023-06-26T07:17:51;6.65;;;2.95;;
73150;SDS011;61354;50.758;6.106;2023-06-26T07:20:17;10.43;;;3.53;;
73150;SDS011;61354;50.758;6.106;2023-06-26T07:22:43;8.52;;;3.40;;
73150;SDS011;61354;50.758;6.106;2023-06-26T07:25:12;5.00;;;2.75;;
73150;SDS011;61354;50.758;6.106;2023-06-26T07:27:38;7.28;;;3.33;;
73150;SDS011;61354;50.758;6.106;2023-06-26T07:30:04;9.45;;;3.10;;
73150;SDS011;61354;50.758;6.106;2023-06-26T07:32:30;8.02;;;3.10;;
73150;SDS011;61354;50.758;6.106;2023-06-26T07:34:55;7.97;;;3.22;;
73150;SDS011;61354;50.758;6.106;2023-06-26T07:37:21;6.63;;;2.90;;
73150;SDS011;61354;50.758;6.106;2023-06-26T07:39:47;7.50;;;3.33;;
73150;SDS011;61354;50.758;6.106;2023-06-26T07:42:14;7.10;;;2.92;;
73150;SDS011;61354;50.758;6.106;2023-06-26T07:44:41;9.27;;;3.50;;
73150;SDS011;61354;50.758;6.106;2023-06-26T07:47:07;11.25;;;3.85;;
73150;SDS011;61354;50.758;6.106;2023-06-26T07:49:32;5.97;;;2.75;;
73150;SDS011;61354;50.758;6.106;2023-06-26T07:51:58;5.35;;;2.65;;
73150;SDS011;61354;50.758;6.106;2023-06-26T07:54:24;5.75;;;2.70;;
73150;SDS011;61354;50.758;6.106;2023-06-26T07:56:59;7.30;;;3.30;;
73150;SDS011;61354;50.758;6.106;2023-06-26T07:59:27;7.00;;;2.90;;
73150;SDS011;61354;50.758;6.106;2023-06-26T08:01:54;7.10;;;2.80;;
73150;SDS011;61354;50.758;6.106;2023-06-26T08:04:21;7.97;;;2.95;;
73150;SDS011;61354;50.758;6.106;2023-06-26T08:06:51;7.60;;;3.10;;
73150;SDS011;61354;50.758;6.106;2023-06-26T08:09:19;9.07;;;3.35;;
73150;SDS011;61354;50.758;6.106;2023-06-26T08:11:48;7.97;;;3.05;;
73150;SDS011;61354;50.758;6.106;2023-06-26T08:14:15;7.43;;;3.42;;
73150;SDS011;61354;50.758;6.106;2023-06-26T08:16:41;5.05;;;2.83;;
73150;SDS011;61354;50.758;6.106;2023-06-26T08:19:08;6.22;;;2.83;;
73150;SDS011;61354;50.758;6.106;2023-06-26T08:21:33;6.38;;;3.00;;
73150;SDS011;61354;50.758;6.106;2023-06-26T08:23:59;6.15;;;2.95;;
73150;SDS011;61354;50.758;6.106;2023-06-26T08:26:25;7.25;;;2.83;;
73150;SDS011;61354;50.758;6.106;2023-06-26T08:28:50;7.15;;;2.70;;
73150;SDS011;61354;50.758;6.106;2023-06-26T08:31:16;10.35;;;3.25;;
73150;SDS011;61354;50.758;6.106;2023-06-26T08:33:42;8.35;;;3.00;;
73150;SDS011;61354;50.758;6.106;2023-06-26T08:36:07;6.80;;;2.67;;
73150;SDS011;61354;50.758;6.106;2023-06-26T08:38:33;4.53;;;1.92;;
73150;SDS011;61354;50.758;6.106;2023-06-26T08:40:59;7.07;;;2.70;;
73150;SDS011;61354;50.758;6.106;2023-06-26T08:43:25;6.43;;;2.78;;
73150;SDS011;61354;50.758;6.106;2023-06-26T08:45:52;7.47;;;3.00;;
73150;SDS011;61354;50.758;6.106;2023-06-26T08:48:18;4.75;;;2.45;;
73150;SDS011;61354;50.758;6.106;2023-06-26T08:50:47;5.90;;;2.22;;
73150;SDS011;61354;50.758;6.106;2023-06-26T08:55:45;8.35;;;2.50;;
73150;SDS011;61354;50.758;6.106;2023-06-26T08:58:11;5.50;;;2.58;;
73150;SDS011;61354;50.758;6.106;2023-06-26T09:00:38;4.13;;;2.10;;
73150;SDS011;61354;50.758;6.106;2023-06-26T09:03:04;5.28;;;2.00;;
73150;SDS011;61354;50.758;6.106;2023-06-26T09:05:30;4.65;;;2.25;;
73150;SDS011;61354;50.758;6.106;2023-06-26T09:07:57;4.60;;;2.00;;
73150;SDS011;61354;50.758;6.106;2023-06-26T09:10:23;11.63;;;2.65;;
73150;SDS011;61354;50.758;6.106;2023-06-26T09:12:49;5.57;;;2.00;;
73150;SDS011;61354;50.758;6.106;2023-06-26T09:15:15;4.95;;;1.80;;
73150;SDS011;61354;50.758;6.106;2023-06-26T09:17:44;7.93;;;1.90;;
73150;SDS011;61354;50.758;6.106;2023-06-26T09:20:10;5.28;;;2.03;;
73150;SDS011;61354;50.758;6.106;2023-06-26T09:22:36;5.68;;;2.20;;
73150;SDS011;61354;50.758;6.106;2023-06-26T09:25:04;8.82;;;2.20;;
73150;SDS011;61354;50.758;6.106;2023-06-26T09:27:30;7.03;;;2.50;;
73150;SDS011;61354;50.758;6.106;2023-06-26T09:29:56;8.77;;;2.28;;
73150;SDS011;61354;50.758;6.106;2023-06-26T09:32:26;8.30;;;2.17;;
73150;SDS011;61354;50.758;6.106;2023-06-26T09:34:55;6.55;;;1.95;;
73150;SDS011;61354;50.758;6.106;2023-06-26T09:37:21;4.22;;;1.95;;
73150;SDS011;61354;50.758;6.106;2023-06-26T09:39:48;8.45;;;2.30;;
73150;SDS011;61354;50.758;6.106;2023-06-26T09:42:14;5.65;;;2.13;;
73150;SDS011;61354;50.758;6.106;2023-06-26T09:44:46;6.72;;;2.55;;
73150;SDS011;61354;50.758;6.106;2023-06-26T09:47:12;6.28;;;2.20;;
73150;SDS011;61354;50.758;6.106;2023-06-26T09:49:41;7.32;;;2.15;;
73150;SDS011;61354;50.758;6.106;2023-06-26T09:52:08;7.68;;;2.38;;
73150;SDS011;61354;50.758;6.106;2023-06-26T09:54:34;5.88;;;2.10;;
73150;SDS011;61354;50.758;6.106;2023-06-26T09:57:11;6.93;;;2.05;;
73150;SDS011;61354;50.758;6.106;2023-06-26T09:59:39;5.57;;;2.00;;
73150;SDS011;61354;50.758;6.106;2023-06-26T10:02:05;7.57;;;2.20;;
73150;SDS011;61354;50.758;6.106;2023-06-26T10:04:31;6.50;;;2.13;;
73150;SDS011;61354;50.758;6.106;2023-06-26T10:06:58;5.78;;;2.35;;
73150;SDS011;61354;50.758;6.106;2023-06-26T10:09:26;4.93;;;1.92;;
73150;SDS011;61354;50.758;6.106;2023-06-26T10:11:56;4.10;;;1.92;;
73150;SDS011;61354;50.758;6.106;2023-06-26T10:14:35;5.40;;;1.75;;
73150;SDS011;61354;50.758;6.106;2023-06-26T10:17:07;5.25;;;2.03;;
73150;SDS011;61354;50.758;6.106;2023-06-26T10:19:35;6.47;;;1.80;;
73150;SDS011;61354;50.758;6.106;2023-06-26T10:22:03;7.93;;;2.28;;
73150;SDS011;61354;50.758;6.106;2023-06-26T10:24:31;5.25;;;2.10;;
73150;SDS011;61354;50.758;6.106;2023-06-26T10:27:14;5.13;;;1.88;;
73150;SDS011;61354;50.758;6.106;2023-06-26T10:29:46;5.15;;;1.80;;
73150;SDS011;61354;50.758;6.106;2023-06-26T10:32:20;7.43;;;2.10;;
73150;SDS011;61354;50.758;6.106;2023-06-26T10:34:46;5.72;;;2.40;;
73150;SDS011;61354;50.758;6.106;2023-06-26T10:37:12;5.20;;;1.90;;
73150;SDS011;61354;50.758;6.106;2023-06-26T10:39:48;4.63;;;1.73;;
73150;SDS011;61354;50.758;6.106;2023-06-26T10:42:18;5.70;;;2.10;;
73150;SDS011;61354;50.758;6.106;2023-06-26T10:44:45;3.75;;;1.90;;
73150;SDS011;61354;50.758;6.106;2023-06-26T10:47:12;3.92;;;1.92;;
73150;SDS011;61354;50.758;6.106;2023-06-26T10:49:55;3.45;;;1.60;;
73150;SDS011;61354;50.758;6.106;2023-06-26T10:52:25;3.92;;;1.85;;
73150;SDS011;61354;50.758;6.106;2023-06-26T10:54:54;5.25;;;1.63;;
73150;SDS011;61354;50.758;6.106;2023-06-26T10:57:23;6.82;;;1.70;;
73150;SDS011;61354;50.758;6.106;2023-06-26T10:59:55;4.50;;;2.35;;
73150;SDS011;61354;50.758;6.106;2023-06-26T11:02:51;3.83;;;1.70;;
73150;SDS011;61354;50.758;6.106;2023-06-26T11:05:29;4.07;;;1.40;;
73150;SDS011;61354;50.758;6.106;2023-06-26T11:08:08;2.42;;;1.30;;
73150;SDS011;61354;50.758;6.106;2023-06-26T11:10:48;4.97;;;1.83;;
73150;SDS011;61354;50.758;6.106;2023-06-26T11:13:16;4.07;;;2.00;;
73150;SDS011;61354;50.758;6.106;2023-06-26T11:15:43;3.95;;;1.58;;
73150;SDS011;61354;50.758;6.106;2023-06-26T11:18:12;5.47;;;1.80;;
73150;SDS011;61354;50.758;6.106;2023-06-26T11:20:38;4.80;;;1.58;;
73150;SDS011;61354;50.758;6.106;2023-06-26T11:23:04;3.47;;;1.33;;
73150;SDS011;61354;50.758;6.106;2023-06-26T11:25:34;5.90;;;1.92;;
73150;SDS011;61354;50.758;6.106;2023-06-26T11:28:02;3.67;;;1.90;;
73150;SDS011;61354;50.758;6.106;2023-06-26T11:30:28;5.30;;;1.80;;
73150;SDS011;61354;50.758;6.106;2023-06-26T11:33:02;4.93;;;1.80;;
73150;SDS011;61354;50.758;6.106;2023-06-26T11:35:28;4.75;;;1.80;;
73150;SDS011;61354;50.758;6.106;2023-06-26T11:37:57;4.55;;;1.60;;
73150;SDS011;61354;50.758;6.106;2023-06-26T11:40:25;4.10;;;1.50;;
73150;SDS011;61354;50.758;6.106;2023-06-26T11:43:00;3.88;;;1.50;;
73150;SDS011;61354;50.758;6.106;2023-06-26T11:45:28;8.40;;;1.90;;
73150;SDS011;61354;50.758;6.106;2023-06-26T11:47:58;2.78;;;1.35;;
73150;SDS011;61354;50.758;6.106;2023-06-26T11:50:25;3.88;;;1.50;;
73150;SDS011;61354;50.758;6.106;2023-06-26T11:52:58;4.97;;;1.48;;
73150;SDS011;61354;50.758;6.106;2023-06-26T11:55:25;3.33;;;1.35;;
73150;SDS011;61354;50.758;6.106;2023-06-26T11:57:54;3.88;;;1.48;;
73150;SDS011;61354;50.758;6.106;2023-06-26T12:00:22;3.72;;;1.75;;
73150;SDS011;61354;50.758;6.106;2023-06-26T12:02:48;2.80;;;1.35;;
73150;SDS011;61354;50.758;6.106;2023-06-26T12:05:17;3.90;;;1.33;;
73150;SDS011;61354;50.758;6.106;2023-06-26T12:07:45;6.15;;;1.77;;
73150;SDS011;61354;50.758;6.106;2023-06-26T12:10:12;5.03;;;1.40;;
73150;SDS011;61354;50.758;6.106;2023-06-26T12:12:39;3.85;;;1.30;;
73150;SDS011;61354;50.758;6.106;2023-06-26T12:15:06;3.72;;;1.40;;
73150;SDS011;61354;50.758;6.106;2023-06-26T12:17:33;3.10;;;1.20;;
73150;SDS011;61354;50.758;6.106;2023-06-26T12:20:03;3.60;;;1.60;;
73150;SDS011;61354;50.758;6.106;2023-06-26T12:22:34;4.20;;;1.25;;
73150;SDS011;61354;50.758;6.106;2023-06-26T12:25:00;3.33;;;1.30;;
73150;SDS011;61354;50.758;6.106;2023-06-26T12:27:26;3.65;;;1.75;;
73150;SDS011;61354;50.758;6.106;2023-06-26T12:29:52;4.53;;;1.30;;
73150;SDS011;61354;50.758;6.106;2023-06-26T12:32:19;4.00;;;1.35;;
73150;SDS011;61354;50.758;6.106;2023-06-26T12:34:49;5.10;;;1.50;;
73150;SDS011;61354;50.758;6.106;2023-06-26T12:37:15;2.67;;;1.48;;
73150;SDS011;61354;50.758;6.106;2023-06-26T12:39:59;3.30;;;1.42;;
73150;SDS011;61354;50.758;6.106;2023-06-26T12:42:27;4.82;;;1.50;;
73150;SDS011;61354;50.758;6.106;2023-06-26T12:44:54;3.03;;;1.35;;
73150;SDS011;61354;50.758;6.106;2023-06-26T12:47:24;3.58;;;1.30;;
73150;SDS011;61354;50.758;6.106;2023-06-26T12:49:54;4.75;;;1.65;;
73150;SDS011;61354;50.758;6.106;2023-06-26T12:52:20;3.80;;;1.50;;
73150;SDS011;61354;50.758;6.106;2023-06-26T12:54:46;4.78;;;1.60;;
73150;SDS011;61354;50.758;6.106;2023-06-26T12:57:16;2.88;;;1.40;;
73150;SDS011;61354;50.758;6.106;2023-06-26T12:59:42;3.80;;;1.30;;
73150;SDS011;61354;50.758;6.106;2023-06-26T13:02:08;4.40;;;1.33;;
73150;SDS011;61354;50.758;6.106;2023-06-26T13:04:36;2.78;;;1.20;;
73150;SDS011;61354;50.758;6.106;2023-06-26T13:07:05;3.85;;;1.40;;
73150;SDS011;61354;50.758;6.106;2023-06-26T13:09:32;2.92;;;1.38;;
73150;SDS011;61354;50.758;6.106;2023-06-26T13:11:58;2.22;;;1.30;;
73150;SDS011;61354;50.758;6.106;2023-06-26T13:14:24;4.80;;;1.45;;
73150;SDS011;61354;50.758;6.106;2023-06-26T13:16:50;3.33;;;1.90;;
73150;SDS011;61354;50.758;6.106;2023-06-26T13:19:15;3.90;;;1.35;;
73150;SDS011;61354;50.758;6.106;2023-06-26T13:21:41;2.92;;;1.55;;
73150;SDS011;61354;50.758;6.106;2023-06-26T13:24:07;3.28;;;1.40;;
73150;SDS011;61354;50.758;6.106;2023-06-26T13:26:33;3.53;;;1.42;;
73150;SDS011;61354;50.758;6.106;2023-06-26T13:28:59;4.35;;;1.50;;
73150;SDS011;61354;50.758;6.106;2023-06-26T13:31:24;4.25;;;1.50;;
73150;SDS011;61354;50.758;6.106;2023-06-26T13:33:53;4.55;;;1.55;;
73150;SDS011;61354;50.758;6.106;2023-06-26T13:36:19;4.00;;;1.40;;
73150;SDS011;61354;50.758;6.106;2023-06-26T13:38:46;3.67;;;1.35;;
73150;SDS011;61354;50.758;6.106;2023-06-26T13:41:13;3.35;;;1.20;;
73150;SDS011;61354;50.758;6.106;2023-06-26T13:43:38;4.32;;;1.60;;
73150;SDS011;61354;50.758;6.106;2023-06-26T13:46:04;5.20;;;1.30;;
73150;SDS011;61354;50.758;6.106;2023-06-26T13:48:30;2.80;;;1.48;;
73150;SDS011;61354;50.758;6.106;2023-06-26T13:50:55;3.42;;;1.23;;
73150;SDS011;61354;50.758;6.106;2023-06-26T13:53:22;2.38;;;1.25;;
73150;SDS011;61354;50.758;6.106;2023-06-26T13:55:47;4.35;;;1.67;;
73150;SDS011;61354;50.758;6.106;2023-06-26T13:58:13;2.13;;;1.00;;
73150;SDS011;61354;50.758;6.106;2023-06-26T14:00:39;2.53;;;1.30;;
73150;SDS011;61354;50.758;6.106;2023-06-26T14:03:06;4.00;;;1.35;;
73150;SDS011;61354;50.758;6.106;2023-06-26T14:05:33;4.22;;;1.45;;
73150;SDS011;61354;50.758;6.106;2023-06-26T14:07:59;4.82;;;1.40;;
73150;SDS011;61354;50.758;6.106;2023-06-26T14:10:27;5.35;;;1.60;;
73150;SDS011;61354;50.758;6.106;2023-06-26T14:12:52;3.53;;;1.30;;
73150;SDS011;61354;50.758;6.106;2023-06-26T14:15:18;4.80;;;1.50;;
73150;SDS011;61354;50.758;6.106;2023-06-26T14:17:44;3.55;;;1.50;;
73150;SDS011;61354;50.758;6.106;2023-06-26T14:20:09;5.47;;;1.30;;
73150;SDS011;61354;50.758;6.106;2023-06-26T14:22:38;4.43;;;1.55;;
73150;SDS011;61354;50.758;6.106;2023-06-26T14:25:05;4.15;;;1.50;;
73150;SDS011;61354;50.758;6.106;2023-06-26T14:27:32;2.53;;;1.20;;
73150;SDS011;61354;50.758;6.106;2023-06-26T14:29:57;4.25;;;1.40;;
73150;SDS011;61354;50.758;6.106;2023-06-26T14:32:23;2.85;;;1.30;;
73150;SDS011;61354;50.758;6.106;2023-06-26T14:34:48;4.25;;;1.15;;
73150;SDS011;61354;50.758;6.106;2023-06-26T14:37:14;4.47;;;1.50;;
73150;SDS011;61354;50.758;6.106;2023-06-26T14:39:39;2.95;;;1.45;;
73150;SDS011;61354;50.758;6.106;2023-06-26T14:42:05;3.63;;;1.35;;
73150;SDS011;61354;50.758;6.106;2023-06-26T14:44:31;3.70;;;1.33;;
73150;SDS011;61354;50.758;6.106;2023-06-26T14:46:56;2.55;;;1.40;;
73150;SDS011;61354;50.758;6.106;2023-06-26T14:49:22;3.30;;;1.60;;
73150;SDS011;61354;50.758;6.106;2023-06-26T14:51:47;4.78;;;1.60;;
73150;SDS011;61354;50.758;6.106;2023-06-26T14:54:13;2.88;;;1.45;;
73150;SDS011;61354;50.758;6.106;2023-06-26T14:56:38;3.97;;;1.45;;
73150;SDS011;61354;50.758;6.106;2023-06-26T14:59:04;3.78;;;1.60;;